createdAt,value
2018-01-24T00:00:22.922Z,10.83
2018-01-24T00:02:50.445Z,10.50
2018-01-24T00:05:18.050Z,10.03
2018-01-24T00:07:45.817Z,10.10
2018-01-24T00:10:13.355Z,9.67
2018-01-24T00:12:41.536Z,9.60
2018-01-24T00:15:09.697Z,9.90
2018-01-24T00:17:37.133Z,10.60
2018-01-24T00:20:04.603Z,9.50
2018-01-24T00:22:33.103Z,10.13
2018-01-24T00:25:00.790Z,10.03
2018-01-24T00:27:28.766Z,9.83
2018-01-24T00:29:56.725Z,10.10
2018-01-24T00:32:24.513Z,8.27
2018-01-24T00:34:52.904Z,10.07
2018-01-24T00:37:20.771Z,9.20
2018-01-24T00:39:49.108Z,9.97
2018-01-24T00:42:17.359Z,9.13
2018-01-24T00:44:44.746Z,9.70
2018-01-24T00:47:12.200Z,10.00
2018-01-24T00:49:40.441Z,9.63
2018-01-24T00:52:08.053Z,9.90
2018-01-24T00:54:36.302Z,9.60
2018-01-24T00:57:03.743Z,9.50
2018-01-24T00:59:32.294Z,8.87
2018-01-24T01:01:59.776Z,9.63
2018-01-24T01:04:27.255Z,9.23
2018-01-24T01:06:54.979Z,9.23
2018-01-24T01:09:22.490Z,9.00
2018-01-24T01:11:49.898Z,9.30
2018-01-24T01:14:17.315Z,8.40
2018-01-24T01:16:45.553Z,9.20
2018-01-24T01:19:13.091Z,8.87
2018-01-24T01:21:40.850Z,8.73
2018-01-24T01:24:08.720Z,9.37
2018-01-24T01:26:36.499Z,9.37
2018-01-24T01:29:03.939Z,8.30
2018-01-24T01:31:31.361Z,9.00
2018-01-24T01:33:58.995Z,9.20
2018-01-24T01:36:26.467Z,8.90
2018-01-24T01:38:54.675Z,8.10
2018-01-24T01:41:22.133Z,9.50
2018-01-24T01:43:50.288Z,8.67
2018-01-24T01:46:17.704Z,8.27
2018-01-24T01:48:45.248Z,10.37
2018-01-24T01:51:12.690Z,8.13
2018-01-24T01:53:40.870Z,7.63
2018-01-24T01:56:09.035Z,9.30
2018-01-24T01:58:37.219Z,8.93
2018-01-24T02:01:04.652Z,8.73
2018-01-24T02:03:32.107Z,9.60
2018-01-24T02:05:59.572Z,8.23
2018-01-24T02:08:27.931Z,8.20
2018-01-24T02:10:55.658Z,7.57
2018-01-24T02:13:23.429Z,8.03
2018-01-24T02:15:50.853Z,9.30
2018-01-24T02:18:18.370Z,8.37
2018-01-24T02:20:46.043Z,8.63
2018-01-24T02:23:13.891Z,8.37
2018-01-24T02:25:41.396Z,8.40
2018-01-24T02:28:09.039Z,8.03
2018-01-24T02:30:36.457Z,8.93
2018-01-24T02:33:04.127Z,8.00
2018-01-24T02:35:31.779Z,8.50
2018-01-24T02:37:59.352Z,8.57
2018-01-24T02:40:27.233Z,8.37
2018-01-24T02:42:54.708Z,8.90
2018-01-24T02:45:22.261Z,8.07
2018-01-24T02:47:49.758Z,8.03
2018-01-24T02:50:18.032Z,8.20
2018-01-24T02:52:45.759Z,8.30
2018-01-24T02:55:13.503Z,8.43
2018-01-24T02:57:41.089Z,7.80
2018-01-24T03:00:08.720Z,8.63
2018-01-24T03:02:36.955Z,8.57
2018-01-24T03:05:04.677Z,8.07
2018-01-24T03:07:32.263Z,7.70
2018-01-24T03:09:59.700Z,7.93
2018-01-24T03:12:27.129Z,8.07
2018-01-24T03:14:55.284Z,7.73
2018-01-24T03:17:22.998Z,7.73
2018-01-24T03:19:50.591Z,8.20
2018-01-24T03:22:18.323Z,7.77
2018-01-24T03:24:46.194Z,8.40
2018-01-24T03:27:13.673Z,7.77
2018-01-24T03:29:41.078Z,9.00
2018-01-24T03:32:08.486Z,7.97
2018-01-24T03:34:36.236Z,7.60
2018-01-24T03:37:03.763Z,8.30
2018-01-24T03:39:31.934Z,8.47
2018-01-24T03:41:59.650Z,6.90
2018-01-24T03:44:27.100Z,7.87
2018-01-24T03:46:54.586Z,6.70
2018-01-24T03:49:22.110Z,7.37
2018-01-24T03:51:50.248Z,7.30
2018-01-24T03:54:18.490Z,6.63
2018-01-24T03:56:46.813Z,8.10
2018-01-24T03:59:15.012Z,7.47
2018-01-24T04:01:43.186Z,6.70
2018-01-24T04:04:10.622Z,7.20
2018-01-24T04:06:38.677Z,7.20
2018-01-24T04:09:06.158Z,8.00
2018-01-24T04:11:34.376Z,8.10
2018-01-24T04:14:02.139Z,7.93
2018-01-24T04:16:30.105Z,7.97
2018-01-24T04:18:57.974Z,7.00
2018-01-24T04:21:25.665Z,7.60
2018-01-24T04:23:53.154Z,7.60
2018-01-24T04:26:20.633Z,7.47
2018-01-24T04:28:48.430Z,7.80
2018-01-24T04:31:16.679Z,7.83
2018-01-24T04:33:44.080Z,7.60
2018-01-24T04:36:11.478Z,7.20
2018-01-24T04:38:38.894Z,6.90
2018-01-24T04:41:06.397Z,8.53
2018-01-24T04:43:34.697Z,7.23
2018-01-24T04:46:02.191Z,7.47
2018-01-24T04:48:29.623Z,7.30
2018-01-24T04:50:57.835Z,7.23
2018-01-24T04:53:25.331Z,7.03
2018-01-24T04:55:53.489Z,7.70
2018-01-24T04:58:20.920Z,6.87
2018-01-24T05:00:48.348Z,7.50
2018-01-24T05:03:16.495Z,8.23
2018-01-24T05:05:43.869Z,7.53
2018-01-24T05:08:11.230Z,7.90
2018-01-24T05:10:39.422Z,7.60
2018-01-24T05:13:07.907Z,8.00
2018-01-24T05:15:36.162Z,7.37
2018-01-24T05:18:03.636Z,7.37
2018-01-24T05:20:31.785Z,7.13
2018-01-24T05:22:59.349Z,7.20
2018-01-24T05:25:26.811Z,6.80
2018-01-24T05:27:54.296Z,7.00
2018-01-24T05:30:22.131Z,6.90
2018-01-24T05:32:49.971Z,7.23
2018-01-24T05:35:17.818Z,7.50
2018-01-24T05:37:45.325Z,6.90
2018-01-24T05:40:12.778Z,7.10
2018-01-24T05:42:40.197Z,7.07
2018-01-24T05:45:08.014Z,6.40
2018-01-24T05:47:35.456Z,7.27
2018-01-24T05:50:02.914Z,7.60
2018-01-24T05:52:30.742Z,7.30
2018-01-24T05:54:58.235Z,6.93
2018-01-24T05:57:25.648Z,6.87
2018-01-24T05:59:53.883Z,7.70
2018-01-24T06:02:21.327Z,7.70
2018-01-24T06:04:48.714Z,7.97
2018-01-24T06:07:17.228Z,8.10
2018-01-24T06:09:44.835Z,7.03
2018-01-24T06:12:12.289Z,7.53
2018-01-24T06:14:39.782Z,7.90
2018-01-24T06:17:07.944Z,7.87
2018-01-24T06:19:35.359Z,7.30
2018-01-24T06:22:03.007Z,8.43
2018-01-24T06:24:30.523Z,7.93
2018-01-24T06:26:57.936Z,6.93
2018-01-24T06:29:25.395Z,7.80
2018-01-24T06:31:53.049Z,6.63
2018-01-24T06:34:20.565Z,7.73
2018-01-24T06:36:48.355Z,8.00
2018-01-24T06:39:16.859Z,7.30
2018-01-24T06:41:45.166Z,7.30
2018-01-24T06:44:12.548Z,7.70
2018-01-24T06:46:40.760Z,7.77
2018-01-24T06:49:08.445Z,7.43
2018-01-24T06:51:36.044Z,7.10
2018-01-24T06:54:03.610Z,7.23
2018-01-24T06:56:31.202Z,7.53
2018-01-24T06:58:59.594Z,8.50
2018-01-24T07:01:27.250Z,7.67
2018-01-24T07:03:55.545Z,6.93
2018-01-24T07:06:23.141Z,7.60
2018-01-24T07:08:50.719Z,7.43
2018-01-24T07:11:19.012Z,7.93
2018-01-24T07:13:47.281Z,8.17
2018-01-24T07:16:15.100Z,7.47
2018-01-24T07:18:42.505Z,7.30
2018-01-24T07:21:10.226Z,7.30
2018-01-24T07:23:37.778Z,8.00
2018-01-24T07:26:05.151Z,7.17
2018-01-24T07:28:32.570Z,7.93
2018-01-24T07:31:00.777Z,8.00
2018-01-24T07:33:28.262Z,7.77
2018-01-24T07:35:55.800Z,7.50
2018-01-24T07:38:23.201Z,7.90
2018-01-24T07:40:51.016Z,7.17
2018-01-24T07:43:18.536Z,7.77
2018-01-24T07:45:45.993Z,7.60
2018-01-24T07:48:13.406Z,7.03
2018-01-24T07:50:40.870Z,7.20
2018-01-24T07:53:08.359Z,7.27
2018-01-24T07:55:36.075Z,7.43
2018-01-24T07:58:03.539Z,7.07
2018-01-24T08:00:30.930Z,7.73
2018-01-24T08:02:58.408Z,8.07
2018-01-24T08:05:25.890Z,7.80
2018-01-24T08:07:53.677Z,8.10
2018-01-24T08:10:21.557Z,7.83
2018-01-24T08:12:49.006Z,6.90
2018-01-24T08:15:16.669Z,7.90
2018-01-24T08:17:44.620Z,6.97
2018-01-24T08:20:13.122Z,7.20
2018-01-24T08:22:41.348Z,7.17
2018-01-24T08:25:08.856Z,7.13
2018-01-24T08:27:36.539Z,7.37
2018-01-24T08:30:03.983Z,7.30
2018-01-24T08:32:31.457Z,7.10
2018-01-24T08:34:59.210Z,8.00
2018-01-24T08:37:26.773Z,6.40
2018-01-24T08:39:54.242Z,7.53
2018-01-24T08:42:22.885Z,7.67
2018-01-24T08:44:50.341Z,6.60
2018-01-24T08:47:18.486Z,7.20
2018-01-24T08:49:46.022Z,8.00
2018-01-24T08:52:13.429Z,7.53
2018-01-24T08:54:40.890Z,7.90
2018-01-24T08:57:08.353Z,6.50
2018-01-24T08:59:37.486Z,7.13
2018-01-24T09:02:05.021Z,7.50
2018-01-24T09:04:33.206Z,7.03
2018-01-24T09:07:00.613Z,7.90
2018-01-24T09:09:28.210Z,7.50
2018-01-24T09:11:55.653Z,7.10
2018-01-24T09:14:23.042Z,7.07
2018-01-24T09:16:51.306Z,7.37
2018-01-24T09:19:18.752Z,7.33
2018-01-24T09:21:46.178Z,8.80
2018-01-24T09:24:13.553Z,7.63
2018-01-24T09:26:40.976Z,8.50
2018-01-24T09:29:08.389Z,7.97
2018-01-24T09:31:35.805Z,9.07
2018-01-24T09:34:03.252Z,8.63
2018-01-24T09:36:31.011Z,8.50
2018-01-24T09:38:58.674Z,9.17
2018-01-24T09:41:26.337Z,9.80
2018-01-24T09:43:53.744Z,9.60
2018-01-24T09:46:21.154Z,8.93
2018-01-24T09:48:48.587Z,9.13
2018-01-24T09:51:16.986Z,9.03
2018-01-24T09:53:45.138Z,9.57
2018-01-24T09:56:13.525Z,9.32
2018-01-24T09:58:41.480Z,9.53
2018-01-24T10:01:08.914Z,8.83
2018-01-24T10:03:36.316Z,10.17
2018-01-24T10:19:16.653Z,9.13
2018-01-24T10:21:44.837Z,9.20
2018-01-24T10:24:12.304Z,9.33
2018-01-24T10:26:40.000Z,9.97
2018-01-24T10:29:07.518Z,10.20
2018-01-24T10:31:34.917Z,9.97
2018-01-24T10:34:02.394Z,10.00
2018-01-24T10:36:29.920Z,10.37
2018-01-24T10:38:58.091Z,9.23
2018-01-24T10:41:26.317Z,11.73
2018-01-24T10:43:53.672Z,37.20
2018-01-24T10:46:21.082Z,27.27
2018-01-24T10:48:49.234Z,27.07
2018-01-24T10:51:16.628Z,31.10
2018-01-24T10:53:44.051Z,32.20
2018-01-24T10:56:11.642Z,38.17
2018-01-24T10:58:39.024Z,39.47
2018-01-24T11:01:06.999Z,40.23
2018-01-24T11:26:25.293Z,26.70
2018-01-24T11:28:53.944Z,24.47
2018-01-24T11:31:23.005Z,21.73
2018-01-24T11:33:50.788Z,20.93
2018-01-24T11:36:18.200Z,19.37
2018-01-24T11:38:46.422Z,18.97
2018-01-24T11:41:13.822Z,17.90
2018-01-24T11:43:41.963Z,16.10
2018-01-24T11:46:09.354Z,15.07
2018-01-24T11:48:37.494Z,15.40
2018-01-24T11:51:04.957Z,15.10
2018-01-24T11:53:32.567Z,16.50
2018-01-24T11:56:00.113Z,14.20
2018-01-24T11:58:28.494Z,15.23
2018-01-24T12:00:55.933Z,15.20
2018-01-24T12:03:23.331Z,19.83
2018-01-24T12:05:51.019Z,17.27
2018-01-24T12:08:18.461Z,16.57
2018-01-24T12:10:45.985Z,15.32
2018-01-24T12:13:14.455Z,13.30
2018-01-24T12:15:42.158Z,13.50
2018-01-24T12:18:10.288Z,13.40
2018-01-24T12:20:37.702Z,12.37
2018-01-24T12:23:05.155Z,12.70
2018-01-24T12:25:32.738Z,11.83
2018-01-24T12:28:00.685Z,11.33
2018-01-24T12:30:28.216Z,11.83
2018-01-24T12:32:55.623Z,12.20
2018-01-24T12:35:23.153Z,11.20
2018-01-24T12:37:51.340Z,12.40
2018-01-24T12:40:18.725Z,11.70
2018-01-24T12:42:46.305Z,13.83
2018-01-24T12:45:13.728Z,11.30
2018-01-24T12:47:41.156Z,11.33
2018-01-24T12:50:09.395Z,13.50
2018-01-24T12:52:37.126Z,10.60
2018-01-24T12:55:04.882Z,11.93
2018-01-24T12:57:32.758Z,11.30
2018-01-24T13:00:00.340Z,11.23
2018-01-24T13:02:27.772Z,11.60
2018-01-24T13:04:55.877Z,12.73
2018-01-24T13:07:23.258Z,13.17
2018-01-24T13:09:50.877Z,17.57
2018-01-24T13:12:18.382Z,13.57
2018-01-24T13:14:45.978Z,12.60
2018-01-24T13:17:14.116Z,12.30
2018-01-24T13:19:42.371Z,14.13
2018-01-24T13:22:09.806Z,12.77
2018-01-24T13:24:37.559Z,13.17
2018-01-24T13:27:04.940Z,14.17
2018-01-24T13:29:32.339Z,14.00
2018-01-24T13:32:00.409Z,14.50
2018-01-24T13:34:27.832Z,14.83
2018-01-24T13:36:55.433Z,13.07
2018-01-24T13:39:22.915Z,13.37
2018-01-24T13:41:51.060Z,14.87
2018-01-24T13:44:18.443Z,13.30
2018-01-24T13:46:46.697Z,12.80
2018-01-24T13:49:14.097Z,13.30
2018-01-24T13:51:41.565Z,12.43
2018-01-24T14:07:14.265Z,23.97
2018-01-24T14:09:42.935Z,22.30
2018-01-24T14:12:10.443Z,22.30
2018-01-24T14:14:38.809Z,20.20
2018-01-24T14:17:06.226Z,21.20
2018-01-24T14:19:34.423Z,19.00
2018-01-24T14:22:01.958Z,18.60
2018-01-24T14:24:30.504Z,17.20
2018-01-24T14:26:57.988Z,19.10
2018-01-24T14:29:26.154Z,17.77
2018-01-24T14:31:54.371Z,16.90
2018-01-24T14:34:21.781Z,17.87
2018-01-24T14:36:49.162Z,15.77
2018-01-24T14:39:17.331Z,16.23
2018-01-24T14:41:44.723Z,15.53
2018-01-24T14:44:12.856Z,16.70
2018-01-24T14:46:40.598Z,16.30
2018-01-24T14:49:08.074Z,15.53
2018-01-24T14:51:35.470Z,16.30
2018-01-24T14:54:03.331Z,16.00
2018-01-24T14:56:31.923Z,14.17
2018-01-24T14:58:59.414Z,14.67
2018-01-24T15:01:27.694Z,12.90
2018-01-24T15:03:55.317Z,14.20
2018-01-24T15:06:22.766Z,14.13
2018-01-24T15:08:50.553Z,13.37
2018-01-24T15:11:18.133Z,13.40
2018-01-24T15:13:45.532Z,14.73
2018-01-24T15:16:12.971Z,12.90
2018-01-24T15:18:40.584Z,12.93
2018-01-24T15:21:09.410Z,13.87
2018-01-24T15:23:36.780Z,12.67
2018-01-24T15:26:04.227Z,13.70
2018-01-24T15:28:31.763Z,13.73
2018-01-24T15:30:59.317Z,14.40
2018-01-24T15:33:26.756Z,14.20
2018-01-24T15:35:54.245Z,15.90
2018-01-24T15:38:21.889Z,17.50
2018-01-24T15:40:49.290Z,16.63
2018-01-24T15:43:16.709Z,15.60
2018-01-24T15:45:44.139Z,16.70
2018-01-24T15:48:11.520Z,14.70
2018-01-24T15:50:39.106Z,15.63
2018-01-24T15:53:06.808Z,15.60
2018-01-24T15:55:34.319Z,14.57
2018-01-24T15:58:01.714Z,13.93
2018-01-24T16:00:29.212Z,12.10
2018-01-24T16:02:57.390Z,12.60
2018-01-24T16:05:24.790Z,12.40
2018-01-24T16:07:53.000Z,11.23
2018-01-24T16:10:20.508Z,12.13
2018-01-24T16:12:48.034Z,12.40
2018-01-24T16:15:15.779Z,12.20
2018-01-24T16:17:43.209Z,12.63
2018-01-24T16:20:10.631Z,13.20
2018-01-24T16:22:38.795Z,12.70
2018-01-24T16:25:07.206Z,12.80
2018-01-24T16:27:35.077Z,13.40
2018-01-24T16:30:02.651Z,13.10
2018-01-24T16:32:30.087Z,12.97
2018-01-24T16:34:57.517Z,13.17
2018-01-24T16:37:26.049Z,12.60
2018-01-24T16:39:53.609Z,12.43
2018-01-24T16:42:21.005Z,12.20
2018-01-24T16:44:48.459Z,12.68
2018-01-24T16:47:15.893Z,12.00
2018-01-24T16:49:43.487Z,12.80
2018-01-24T16:52:11.249Z,11.97
2018-01-24T16:54:38.655Z,10.90
2018-01-24T16:57:06.126Z,11.60
2018-01-24T16:59:33.522Z,11.20
2018-01-24T17:02:08.201Z,9.70
2018-01-24T17:04:36.067Z,10.60
2018-01-24T17:07:03.950Z,10.27
2018-01-24T17:09:31.784Z,10.30
2018-01-24T17:12:00.298Z,10.23
2018-01-24T17:14:27.942Z,10.97
2018-01-24T17:16:56.437Z,10.43
2018-01-24T17:19:24.593Z,10.00
2018-01-24T17:21:52.172Z,11.47
2018-01-24T17:24:19.605Z,9.77
2018-01-24T17:26:48.116Z,10.70
2018-01-24T17:29:15.534Z,10.57
2018-01-24T17:31:42.995Z,8.17
2018-01-24T17:34:11.267Z,9.20
2018-01-24T17:36:38.740Z,9.53
2018-01-24T17:39:06.163Z,8.60
2018-01-24T17:41:33.586Z,8.27
2018-01-24T17:44:01.221Z,9.07
2018-01-24T17:46:28.715Z,8.33
2018-01-24T17:48:56.473Z,8.10
2018-01-24T17:51:24.088Z,7.77
2018-01-24T17:53:52.273Z,8.60
2018-01-24T17:56:19.666Z,8.33
2018-01-24T17:58:47.327Z,8.43
2018-01-24T18:01:14.935Z,9.13
2018-01-24T18:03:43.295Z,7.57
2018-01-24T18:06:10.838Z,7.70
2018-01-24T18:08:38.450Z,8.50
2018-01-24T18:11:07.042Z,8.30
2018-01-24T18:13:34.516Z,8.13
2018-01-24T18:16:01.980Z,8.40
2018-01-24T18:18:29.387Z,8.40
2018-01-24T18:20:57.136Z,8.57
2018-01-24T18:43:48.054Z,7.73
2018-01-24T18:46:15.579Z,8.77
2018-01-24T18:48:43.020Z,9.73
2018-01-24T18:51:10.778Z,9.30
2018-01-24T18:53:39.139Z,9.40
2018-01-24T18:56:08.062Z,8.00
2018-01-24T18:58:35.719Z,8.20
2018-01-24T19:01:04.146Z,9.03
2018-01-24T19:03:31.591Z,7.50
2018-01-24T19:05:59.087Z,7.90
2018-01-24T19:08:27.571Z,8.60
2018-01-24T19:10:55.012Z,9.10
2018-01-24T19:13:22.433Z,8.23
2018-01-24T19:15:49.915Z,8.60
2018-01-24T19:18:17.700Z,8.70
2018-01-24T19:20:45.157Z,8.37
2018-01-24T19:23:12.622Z,8.67
2018-01-24T19:25:41.044Z,8.50
2018-01-24T19:28:09.341Z,8.10
2018-01-24T19:30:37.239Z,8.10
2018-01-24T19:33:04.663Z,8.03
2018-01-24T19:35:32.103Z,7.83
2018-01-24T19:37:59.554Z,8.70
2018-01-24T19:40:27.024Z,8.00
2018-01-24T19:42:54.682Z,7.57
2018-01-24T19:45:22.559Z,7.50
2018-01-24T19:47:51.472Z,8.43
2018-01-24T19:50:18.886Z,8.10
2018-01-24T19:52:46.657Z,8.37
2018-01-24T19:55:14.252Z,8.60
2018-01-24T19:57:41.667Z,7.73
2018-01-24T20:00:10.175Z,8.57
2018-01-24T20:02:37.612Z,7.50
2018-01-24T20:05:05.775Z,8.37
2018-01-24T20:07:33.251Z,8.47
2018-01-24T20:10:00.723Z,7.30
2018-01-24T20:12:28.382Z,7.80
2018-01-24T20:14:55.862Z,8.07
2018-01-24T20:17:23.334Z,8.70
2018-01-24T20:19:50.842Z,8.00
2018-01-24T20:22:18.542Z,8.53
2018-01-24T20:24:46.300Z,7.90
2018-01-24T20:27:13.775Z,8.30
2018-01-24T20:29:41.289Z,8.53
2018-01-24T20:32:08.858Z,7.90
2018-01-24T20:34:36.364Z,9.10
2018-01-24T20:37:04.217Z,7.60
2018-01-24T20:39:31.725Z,7.20
2018-01-24T20:41:59.142Z,7.67
2018-01-24T20:44:26.547Z,7.97
2018-01-24T20:46:53.971Z,7.23
2018-01-24T20:49:22.326Z,7.90
2018-01-24T20:51:49.831Z,7.90
2018-01-24T20:54:17.306Z,8.03
2018-01-24T20:56:44.800Z,8.40
2018-01-24T20:59:12.392Z,6.73
2018-01-24T21:01:40.480Z,7.37
2018-01-24T21:04:07.915Z,7.50
2018-01-24T21:06:35.659Z,7.00
2018-01-24T21:09:03.176Z,7.23
2018-01-24T21:11:30.618Z,6.40
2018-01-24T21:13:58.936Z,7.10
2018-01-24T21:16:27.547Z,6.17
2018-01-24T21:18:55.274Z,7.00
2018-01-24T21:21:22.843Z,6.80
2018-01-24T21:23:51.043Z,6.80
2018-01-24T21:26:18.567Z,6.47
2018-01-24T21:28:46.387Z,7.10
2018-01-24T21:31:13.898Z,7.87
2018-01-24T21:33:41.390Z,7.90
2018-01-24T21:36:09.632Z,6.70
2018-01-24T21:38:37.154Z,6.67
2018-01-24T21:41:04.960Z,6.70
2018-01-24T21:43:32.780Z,6.57
2018-01-24T21:46:00.506Z,6.83
2018-01-24T21:48:28.052Z,7.30
2018-01-24T21:50:55.478Z,7.00
2018-01-24T21:53:23.033Z,6.70
2018-01-24T21:55:50.550Z,7.03
2018-01-24T21:58:18.666Z,6.90
2018-01-24T22:00:46.528Z,6.53
2018-01-24T22:03:14.825Z,7.23
2018-01-24T22:05:42.316Z,6.60
2018-01-24T22:08:09.900Z,6.87
2018-01-24T22:10:38.025Z,7.30
2018-01-24T22:13:05.761Z,6.00
2018-01-24T22:15:34.056Z,7.37
2018-01-24T22:18:01.501Z,7.17
2018-01-24T22:33:30.167Z,6.23
2018-01-24T22:35:57.579Z,6.67
2018-01-24T22:38:25.046Z,6.80
2018-01-24T22:40:53.395Z,7.47
2018-01-24T22:43:21.012Z,6.70
2018-01-24T22:45:48.824Z,6.50
2018-01-24T22:48:17.152Z,7.37
2018-01-24T22:50:44.550Z,7.33
2018-01-24T22:53:12.421Z,6.70
2018-01-24T22:55:39.843Z,7.03
2018-01-24T22:58:08.010Z,6.00
2018-01-24T23:00:35.556Z,6.47
2018-01-24T23:03:03.052Z,7.00
2018-01-24T23:05:31.452Z,7.30
2018-01-24T23:07:59.424Z,6.50
2018-01-24T23:10:27.293Z,7.60
2018-01-24T23:12:54.728Z,8.33
2018-01-24T23:15:22.908Z,7.43
2018-01-24T23:17:51.048Z,8.30
2018-01-24T23:20:18.484Z,7.50
2018-01-24T23:22:46.122Z,8.20
2018-01-24T23:25:14.428Z,8.77
2018-01-24T23:27:42.146Z,8.20
2018-01-24T23:30:10.322Z,9.30
2018-01-24T23:32:38.524Z,9.60
2018-01-24T23:35:06.175Z,7.27
2018-01-24T23:37:34.404Z,9.60
2018-01-24T23:40:01.890Z,9.00
2018-01-24T23:42:30.135Z,8.50
2018-01-24T23:44:57.538Z,8.00
2018-01-24T23:47:25.698Z,9.17
2018-01-24T23:49:53.962Z,8.57
2018-01-24T23:52:21.441Z,8.80
